createdAt,value
2017-10-10T00:02:01.072Z,14.47
2017-10-10T00:04:29.419Z,12.27
2017-10-10T00:06:57.762Z,11.13
2017-10-10T00:09:26.844Z,11.10
2017-10-10T00:11:55.998Z,11.20
2017-10-10T00:14:24.321Z,11.97
2017-10-10T00:16:53.404Z,12.40
2017-10-10T00:19:21.755Z,12.27
2017-10-10T00:21:50.072Z,12.43
2017-10-10T00:24:19.187Z,13.07
2017-10-10T00:26:48.269Z,12.10
2017-10-10T00:29:16.605Z,12.80
2017-10-10T00:31:44.932Z,13.37
2017-10-10T00:34:14.059Z,11.30
2017-10-10T00:36:42.735Z,13.90
2017-10-10T00:39:11.094Z,12.90
2017-10-10T00:41:40.197Z,12.87
2017-10-10T00:44:09.314Z,12.00
2017-10-10T00:46:37.669Z,14.00
2017-10-10T00:49:06.006Z,15.23
2017-10-10T00:51:34.316Z,14.33
2017-10-10T00:54:03.447Z,13.63
2017-10-10T00:56:31.784Z,13.57
2017-10-10T00:59:00.127Z,13.93
2017-10-10T01:01:28.466Z,15.20
2017-10-10T01:03:57.587Z,14.27
2017-10-10T01:06:25.909Z,13.40
2017-10-10T01:08:54.276Z,14.10
2017-10-10T01:11:22.599Z,16.77
2017-10-10T01:13:51.714Z,13.90
2017-10-10T01:16:20.042Z,13.67
2017-10-10T01:18:48.393Z,12.23
2017-10-10T01:21:16.704Z,11.70
2017-10-10T01:23:45.083Z,13.53
2017-10-10T01:26:13.412Z,12.60
2017-10-10T01:28:41.775Z,12.60
2017-10-10T01:31:10.853Z,12.90
2017-10-10T01:33:39.978Z,14.90
2017-10-10T01:36:08.318Z,13.60
2017-10-10T01:38:36.658Z,13.93
2017-10-10T01:41:04.999Z,13.13
2017-10-10T01:43:34.135Z,16.93
2017-10-10T01:46:02.463Z,15.20
2017-10-10T01:48:30.806Z,14.57
2017-10-10T01:50:59.123Z,14.70
2017-10-10T01:53:27.466Z,15.30
2017-10-10T01:55:55.794Z,17.17
2017-10-10T01:58:24.901Z,16.63
2017-10-10T02:00:53.972Z,16.47
2017-10-10T02:03:22.319Z,17.57
2017-10-10T02:05:50.671Z,16.70
2017-10-10T02:08:19.025Z,16.47
2017-10-10T02:10:47.390Z,18.30
2017-10-10T02:13:15.749Z,15.00
2017-10-10T02:15:44.086Z,14.30
2017-10-10T02:18:12.437Z,16.90
2017-10-10T02:20:40.792Z,15.87
2017-10-10T02:23:09.128Z,15.70
2017-10-10T02:25:37.447Z,14.83
2017-10-10T02:28:05.777Z,14.97
2017-10-10T02:30:34.097Z,12.60
2017-10-10T02:33:02.447Z,14.20
2017-10-10T02:35:30.765Z,12.70
2017-10-10T02:37:59.125Z,12.30
2017-10-10T02:40:27.674Z,13.20
2017-10-10T02:42:56.269Z,12.40
2017-10-10T02:45:24.594Z,12.80
2017-10-10T02:47:52.940Z,12.77
2017-10-10T02:50:21.268Z,13.00
2017-10-10T02:52:50.384Z,12.83
2017-10-10T02:55:18.724Z,12.60
2017-10-10T02:57:47.066Z,13.57
2017-10-10T03:00:15.395Z,13.47
2017-10-10T03:02:44.526Z,13.77
2017-10-10T03:05:12.878Z,12.33
2017-10-10T03:07:42.112Z,12.53
2017-10-10T03:10:10.444Z,12.57
2017-10-10T03:12:39.600Z,13.20
2017-10-10T03:15:07.925Z,12.20
2017-10-10T03:17:36.263Z,14.10
2017-10-10T03:20:04.645Z,12.70
2017-10-10T03:22:32.970Z,13.57
2017-10-10T03:25:02.086Z,12.53
2017-10-10T03:27:31.174Z,15.60
2017-10-10T03:30:00.392Z,13.70
2017-10-10T03:32:28.756Z,13.83
2017-10-10T03:34:57.117Z,12.37
2017-10-10T03:37:25.461Z,12.20
2017-10-10T03:39:53.816Z,12.47
2017-10-10T03:42:22.159Z,12.03
2017-10-10T03:44:51.293Z,12.63
2017-10-10T03:47:19.633Z,12.70
2017-10-10T03:49:47.986Z,12.90
2017-10-10T03:52:16.312Z,14.17
2017-10-10T03:54:44.680Z,12.37
2017-10-10T03:57:13.026Z,11.70
2017-10-10T03:59:41.386Z,14.03
2017-10-10T04:02:09.706Z,13.77
2017-10-10T04:04:38.838Z,15.47
2017-10-10T04:07:07.170Z,12.90
2017-10-10T04:09:35.514Z,13.03
2017-10-10T04:12:03.846Z,11.10
2017-10-10T04:14:32.964Z,12.20
2017-10-10T04:17:01.283Z,11.07
2017-10-10T04:19:29.636Z,12.30
2017-10-10T04:21:58.776Z,13.50
2017-10-10T04:24:27.118Z,13.30
2017-10-10T04:26:55.442Z,14.73
2017-10-10T04:29:23.799Z,13.67
2017-10-10T04:31:52.119Z,11.40
2017-10-10T04:34:21.227Z,11.67
2017-10-10T04:36:49.551Z,10.83
2017-10-10T04:39:17.910Z,11.80
2017-10-10T04:41:46.233Z,12.80
2017-10-10T04:44:14.584Z,15.47
2017-10-10T04:46:42.913Z,15.30
2017-10-10T04:49:11.279Z,14.93
2017-10-10T04:51:40.385Z,12.90
2017-10-10T04:54:09.502Z,12.47
2017-10-10T04:56:37.846Z,12.10
2017-10-10T04:59:06.197Z,12.10
2017-10-10T05:01:34.554Z,11.83
2017-10-10T05:04:02.890Z,10.20
2017-10-10T05:06:31.980Z,10.33
2017-10-10T05:09:00.321Z,9.87
2017-10-10T05:11:28.665Z,10.77
2017-10-10T05:13:57.043Z,11.13
2017-10-10T05:16:25.384Z,10.80
2017-10-10T05:18:53.740Z,10.70
2017-10-10T05:21:22.063Z,11.40
2017-10-10T05:23:51.299Z,10.60
2017-10-10T05:26:19.619Z,9.80
2017-10-10T05:28:47.975Z,10.70
2017-10-10T05:31:16.315Z,10.40
2017-10-10T05:33:44.681Z,11.27
2017-10-10T05:36:13.768Z,10.67
2017-10-10T05:38:42.112Z,11.20
2017-10-10T05:41:10.456Z,11.60
2017-10-10T05:43:38.803Z,10.10
2017-10-10T05:46:07.128Z,10.83
2017-10-10T05:48:35.470Z,9.83
2017-10-10T05:51:04.619Z,12.00
2017-10-10T05:53:32.972Z,11.03
2017-10-10T05:56:01.304Z,9.83
2017-10-10T05:58:29.643Z,11.20
2017-10-10T06:00:57.965Z,10.30
2017-10-10T06:03:26.329Z,10.30
2017-10-10T06:05:54.659Z,8.83
2017-10-10T06:08:22.993Z,8.90
2017-10-10T06:10:51.463Z,10.20
2017-10-10T06:13:19.803Z,10.57
2017-10-10T06:15:48.159Z,9.43
2017-10-10T06:18:16.522Z,10.13
2017-10-10T06:20:44.877Z,9.37
2017-10-10T06:23:13.210Z,9.70
2017-10-10T06:25:41.595Z,10.23
2017-10-10T06:28:10.846Z,9.73
2017-10-10T06:30:39.211Z,11.10
2017-10-10T06:33:07.539Z,10.80
2017-10-10T06:35:35.906Z,10.10
2017-10-10T06:38:04.239Z,10.90
2017-10-10T06:40:33.085Z,10.97
2017-10-10T06:43:02.424Z,10.47
2017-10-10T06:45:30.775Z,11.00
2017-10-10T06:47:59.114Z,11.53
2017-10-10T06:50:27.495Z,10.70
2017-10-10T06:52:55.826Z,10.93
2017-10-10T06:55:24.178Z,10.77
2017-10-10T06:57:53.280Z,10.70
2017-10-10T07:00:22.396Z,10.03
2017-10-10T07:02:50.737Z,11.67
2017-10-10T07:05:22.729Z,11.63
2017-10-10T07:07:51.079Z,10.60
2017-10-10T07:10:19.422Z,11.73
2017-10-10T07:12:47.755Z,11.10
2017-10-10T07:15:16.866Z,11.60
2017-10-10T07:17:45.190Z,10.00
2017-10-10T07:20:13.571Z,10.63
2017-10-10T07:22:41.896Z,12.23
2017-10-10T07:25:11.166Z,11.03
2017-10-10T07:27:39.499Z,10.07
2017-10-10T07:30:11.571Z,10.23
2017-10-10T07:32:39.908Z,10.60
2017-10-10T07:35:08.251Z,10.63
2017-10-10T07:37:36.596Z,11.10
2017-10-10T07:40:04.955Z,11.10
2017-10-10T07:42:34.055Z,9.87
2017-10-10T07:45:03.169Z,11.30
2017-10-10T07:47:31.508Z,11.07
2017-10-10T07:49:59.889Z,10.93
2017-10-10T07:52:28.236Z,10.30
2017-10-10T07:54:56.594Z,10.10
2017-10-10T07:57:24.910Z,9.73
2017-10-10T07:59:53.263Z,9.50
2017-10-10T08:02:21.583Z,8.90
2017-10-10T08:04:49.944Z,9.50
2017-10-10T08:07:18.275Z,9.73
2017-10-10T08:09:46.619Z,10.60
2017-10-10T08:12:14.938Z,9.60
2017-10-10T08:14:43.278Z,11.10
2017-10-10T08:17:11.613Z,10.20
2017-10-10T08:19:39.953Z,10.33
2017-10-10T08:22:09.036Z,9.13
2017-10-10T08:24:37.405Z,9.60
2017-10-10T08:27:05.740Z,10.87
2017-10-10T08:29:34.084Z,9.83
2017-10-10T08:32:02.410Z,9.37
2017-10-10T08:34:30.745Z,9.40
2017-10-10T08:36:59.864Z,9.70
2017-10-10T08:39:28.206Z,10.27
2017-10-10T08:41:56.539Z,9.30
2017-10-10T08:44:24.886Z,9.93
2017-10-10T08:46:53.206Z,9.23
2017-10-10T08:49:21.562Z,8.00
2017-10-10T08:51:49.886Z,8.33
2017-10-10T08:54:18.225Z,10.10
2017-10-10T08:56:46.542Z,7.70
2017-10-10T08:59:14.899Z,8.27
2017-10-10T09:01:43.239Z,8.23
2017-10-10T09:04:11.591Z,8.23
2017-10-10T09:06:39.911Z,7.40
2017-10-10T09:09:08.233Z,7.70
2017-10-10T09:11:36.591Z,8.30
2017-10-10T09:14:04.932Z,7.73
2017-10-10T09:16:34.058Z,8.33
2017-10-10T09:19:02.381Z,7.40
2017-10-10T09:21:30.725Z,7.60
2017-10-10T09:23:59.107Z,7.83
2017-10-10T09:26:27.462Z,8.33
2017-10-10T09:28:55.787Z,7.43
2017-10-10T09:31:24.140Z,7.63
2017-10-10T09:33:52.458Z,8.40
2017-10-10T09:36:20.808Z,8.97
2017-10-10T09:38:49.136Z,7.17
2017-10-10T09:41:18.246Z,6.90
2017-10-10T09:43:46.567Z,6.83
2017-10-10T09:46:14.918Z,7.23
2017-10-10T09:48:43.237Z,5.70
2017-10-10T09:51:11.588Z,6.73
2017-10-10T09:53:39.906Z,6.80
2017-10-10T09:56:08.255Z,6.40
2017-10-10T09:58:36.579Z,4.60
2017-10-10T10:01:05.702Z,4.13
2017-10-10T10:03:34.020Z,5.50
2017-10-10T10:06:02.362Z,4.97
2017-10-10T10:08:30.681Z,5.23
2017-10-10T10:10:59.022Z,5.43
2017-10-10T10:13:27.333Z,5.40
2017-10-10T10:15:55.682Z,4.90
2017-10-10T10:18:23.990Z,5.07
2017-10-10T10:20:52.343Z,4.40
2017-10-10T10:23:20.660Z,4.10
2017-10-10T10:25:49.028Z,4.00
2017-10-10T10:28:17.352Z,3.43
2017-10-10T10:30:45.687Z,4.03
2017-10-10T10:33:14.015Z,4.37
2017-10-10T10:35:42.472Z,4.03
2017-10-10T10:38:11.565Z,4.50
2017-10-10T10:40:40.693Z,3.60
2017-10-10T10:43:09.024Z,3.80
2017-10-10T10:45:37.369Z,4.30
2017-10-10T10:48:05.681Z,4.10
2017-10-10T10:50:34.018Z,4.13
2017-10-10T10:53:02.349Z,5.03
2017-10-10T10:55:30.693Z,5.00
2017-10-10T10:57:59.009Z,4.17
2017-10-10T11:00:27.353Z,4.83
2017-10-10T11:02:55.692Z,5.03
2017-10-10T11:05:24.041Z,4.80
2017-10-10T11:07:52.370Z,5.70
2017-10-10T11:10:20.709Z,5.70
2017-10-10T11:12:49.812Z,5.43
2017-10-10T11:15:18.923Z,5.37
2017-10-10T11:17:47.238Z,5.47
2017-10-10T11:20:15.591Z,5.77
2017-10-10T11:22:43.922Z,4.90
2017-10-10T11:25:12.293Z,5.80
2017-10-10T11:27:40.614Z,6.17
2017-10-10T11:30:09.742Z,5.43
2017-10-10T11:32:38.076Z,5.57
2017-10-10T11:35:07.191Z,5.80
2017-10-10T11:37:35.518Z,6.53
2017-10-10T11:40:03.866Z,6.30
2017-10-10T11:42:32.189Z,5.47
2017-10-10T11:45:00.554Z,5.17
2017-10-10T11:47:28.908Z,5.60
2017-10-10T11:49:57.279Z,6.20
2017-10-10T11:52:25.607Z,6.10
2017-10-10T11:54:53.980Z,6.50
2017-10-10T11:57:23.844Z,6.70
2017-10-10T11:59:52.163Z,6.50
2017-10-10T12:02:20.505Z,6.90
2017-10-10T12:04:48.840Z,6.53
2017-10-10T12:07:17.200Z,7.20
2017-10-10T12:09:45.527Z,6.93
2017-10-10T12:12:13.877Z,7.97
2017-10-10T12:14:42.971Z,7.17
2017-10-10T12:17:11.301Z,7.80
2017-10-10T12:19:39.615Z,6.80
2017-10-10T12:22:07.965Z,7.47
2017-10-10T12:24:36.291Z,6.93
2017-10-10T12:27:05.407Z,7.20
2017-10-10T12:29:34.515Z,7.30
2017-10-10T12:32:03.781Z,6.90
2017-10-10T12:34:32.897Z,7.30
2017-10-10T12:37:01.245Z,7.17
2017-10-10T12:39:29.570Z,7.60
2017-10-10T12:41:57.943Z,5.73
2017-10-10T12:44:26.274Z,5.60
2017-10-10T12:46:54.619Z,6.73
2017-10-10T12:49:22.948Z,6.43
2017-10-10T12:51:52.069Z,6.20
2017-10-10T12:54:21.160Z,6.93
2017-10-10T12:56:50.260Z,5.90
2017-10-10T12:59:19.366Z,6.17
2017-10-10T13:01:47.724Z,6.13
2017-10-10T13:04:16.041Z,6.00
2017-10-10T13:06:44.427Z,7.03
2017-10-10T13:09:12.750Z,6.40
2017-10-10T13:11:41.101Z,6.87
2017-10-10T13:14:09.415Z,6.30
2017-10-10T13:16:37.779Z,5.80
2017-10-10T13:19:06.102Z,6.37
2017-10-10T13:21:34.492Z,6.90
2017-10-10T13:24:02.803Z,5.80
2017-10-10T13:26:31.156Z,6.80
2017-10-10T13:28:59.501Z,6.67
2017-10-10T13:31:28.607Z,6.40
2017-10-10T13:33:57.702Z,6.20
2017-10-10T13:36:26.813Z,7.40
2017-10-10T13:38:55.176Z,7.73
2017-10-10T13:41:23.535Z,7.20
2017-10-10T13:43:51.854Z,7.33
2017-10-10T13:46:20.196Z,9.43
2017-10-10T13:48:48.507Z,6.77
2017-10-10T13:51:16.850Z,6.87
2017-10-10T13:53:45.942Z,6.70
2017-10-10T13:56:14.283Z,6.37
2017-10-10T13:58:42.598Z,7.77
2017-10-10T14:01:10.950Z,6.37
2017-10-10T14:03:39.263Z,6.50
2017-10-10T14:06:07.599Z,6.30
2017-10-10T14:08:35.925Z,5.63
2017-10-10T14:11:05.033Z,6.10
2017-10-10T14:13:34.108Z,5.90
2017-10-10T14:16:02.459Z,5.70
2017-10-10T14:18:30.792Z,5.63
2017-10-10T14:20:59.904Z,5.47
2017-10-10T14:23:28.233Z,5.23
2017-10-10T14:25:56.593Z,5.47
2017-10-10T14:28:24.929Z,4.60
2017-10-10T14:30:54.035Z,5.00
2017-10-10T14:33:22.343Z,4.13
2017-10-10T14:35:50.700Z,4.83
2017-10-10T14:38:19.040Z,4.90
2017-10-10T14:40:47.378Z,4.80
2017-10-10T14:43:15.696Z,4.70
2017-10-10T14:45:44.797Z,4.60
2017-10-10T14:48:15.055Z,4.40
2017-10-10T14:50:43.411Z,5.00
2017-10-10T14:53:11.760Z,5.40
2017-10-10T14:55:40.891Z,4.40
2017-10-10T14:58:09.966Z,4.60
2017-10-10T15:00:38.293Z,4.43
2017-10-10T15:03:06.636Z,5.47
2017-10-10T15:05:35.729Z,4.40
2017-10-10T15:08:04.849Z,4.27
2017-10-10T15:10:33.169Z,4.93
2017-10-10T15:13:04.521Z,4.40
2017-10-10T15:15:32.843Z,4.80
2017-10-10T15:18:01.955Z,4.77
2017-10-10T15:20:30.295Z,3.97
2017-10-10T15:22:58.645Z,4.40
2017-10-10T15:25:26.960Z,3.70
2017-10-10T15:27:55.300Z,4.60
2017-10-10T15:30:23.617Z,4.70
2017-10-10T15:32:51.970Z,4.90
2017-10-10T15:35:21.200Z,4.77
2017-10-10T15:37:50.320Z,4.60
2017-10-10T15:40:18.647Z,4.97
2017-10-10T15:42:46.996Z,4.70
2017-10-10T15:45:16.080Z,5.23
2017-10-10T15:47:44.444Z,4.00
2017-10-10T15:50:13.527Z,5.13
2017-10-10T15:52:42.662Z,4.43
2017-10-10T15:55:11.006Z,4.67
2017-10-10T15:57:40.125Z,4.40
2017-10-10T16:00:08.447Z,5.13
2017-10-10T16:02:36.819Z,4.53
2017-10-10T16:05:05.139Z,4.30
2017-10-10T16:07:34.266Z,4.37
2017-10-10T16:10:02.606Z,4.13
2017-10-10T16:12:30.946Z,4.03
2017-10-10T16:15:00.030Z,4.47
2017-10-10T16:17:28.366Z,4.80
2017-10-10T16:19:56.678Z,4.57
2017-10-10T16:22:25.017Z,4.90
2017-10-10T16:24:53.334Z,4.40
2017-10-10T16:27:21.679Z,4.37
2017-10-10T16:29:50.771Z,4.27
2017-10-10T16:32:19.116Z,4.70
2017-10-10T16:34:47.433Z,4.60
2017-10-10T16:37:16.529Z,4.57
2017-10-10T16:39:44.839Z,4.53
2017-10-10T16:42:13.177Z,4.17
2017-10-10T16:44:41.501Z,4.70
2017-10-10T16:47:09.847Z,4.60
2017-10-10T16:49:38.958Z,5.87
2017-10-10T16:52:07.303Z,5.00
2017-10-10T16:54:35.639Z,3.90
2017-10-10T16:57:04.003Z,4.70
2017-10-10T16:59:32.385Z,4.43
2017-10-10T17:02:00.731Z,4.30
2017-10-10T17:04:29.862Z,4.47
2017-10-10T17:06:58.210Z,4.90
2017-10-10T17:09:27.312Z,4.87
2017-10-10T17:11:56.419Z,5.10
2017-10-10T17:14:25.503Z,4.90
2017-10-10T17:16:54.621Z,4.50
2017-10-10T17:19:22.957Z,4.53
2017-10-10T17:21:51.315Z,4.03
2017-10-10T17:24:19.639Z,4.60
2017-10-10T17:26:48.760Z,4.43
2017-10-10T17:29:17.092Z,4.47
2017-10-10T17:31:45.425Z,6.77
2017-10-10T17:34:13.834Z,7.33
2017-10-10T17:36:42.181Z,5.00
2017-10-10T17:39:10.499Z,4.63
2017-10-10T17:41:55.741Z,4.80
2017-10-10T17:44:24.061Z,5.80
2017-10-10T17:46:52.403Z,5.67
2017-10-10T17:49:20.727Z,5.23
2017-10-10T17:51:49.081Z,4.73
2017-10-10T17:54:17.395Z,5.40
2017-10-10T17:56:45.750Z,7.00
2017-10-10T17:59:14.071Z,5.30
2017-10-10T18:01:43.178Z,5.10
2017-10-10T18:04:11.493Z,5.27
2017-10-10T18:06:39.832Z,5.60
2017-10-10T18:09:08.173Z,4.70
2017-10-10T18:11:36.528Z,5.23
2017-10-10T18:14:04.858Z,5.63
2017-10-10T18:16:33.969Z,5.30
2017-10-10T18:19:02.294Z,6.20
2017-10-10T18:21:30.612Z,5.60
2017-10-10T18:23:59.732Z,6.53
2017-10-10T18:26:28.057Z,5.70
2017-10-10T18:28:56.400Z,5.63
2017-10-10T18:31:24.723Z,6.77
2017-10-10T18:33:53.108Z,6.20
2017-10-10T18:36:21.427Z,7.20
2017-10-10T18:38:49.781Z,6.70
2017-10-10T18:41:18.101Z,6.50
2017-10-10T18:43:47.186Z,6.70
2017-10-10T18:46:15.514Z,8.23
2017-10-10T18:48:44.363Z,7.47
2017-10-10T18:51:12.683Z,8.17
2017-10-10T18:53:41.070Z,9.37
2017-10-10T18:56:10.166Z,9.53
2017-10-10T18:58:40.285Z,10.50
2017-10-10T19:01:09.393Z,9.33
2017-10-10T19:03:38.511Z,8.53
2017-10-10T19:06:07.505Z,8.80
2017-10-10T19:08:36.644Z,8.27
2017-10-10T19:11:05.004Z,7.27
2017-10-10T19:13:33.373Z,9.30
2017-10-10T19:16:01.710Z,8.90
2017-10-10T19:18:30.860Z,9.10
2017-10-10T19:20:59.282Z,8.00
2017-10-10T19:23:27.650Z,8.40
2017-10-10T19:25:56.019Z,8.00
2017-10-10T19:28:24.423Z,8.30
2017-10-10T19:30:52.749Z,8.50
2017-10-10T19:33:21.095Z,8.03
2017-10-10T19:35:50.201Z,7.97
2017-10-10T19:38:19.308Z,6.83
2017-10-10T19:40:47.629Z,7.90
2017-10-10T19:43:15.988Z,8.07
2017-10-10T19:45:44.367Z,8.90
2017-10-10T19:48:13.648Z,8.13
2017-10-10T19:50:41.970Z,7.93
2017-10-10T19:53:10.354Z,8.00
2017-10-10T19:55:38.738Z,8.40
2017-10-10T19:58:07.142Z,9.77
2017-10-10T20:00:36.237Z,8.53
2017-10-10T20:03:04.658Z,7.60
2017-10-10T20:05:32.999Z,8.60
2017-10-10T20:08:02.172Z,9.70
2017-10-10T20:10:30.562Z,8.83
2017-10-10T20:12:58.973Z,9.07
2017-10-10T20:15:30.959Z,8.90
2017-10-10T20:17:59.317Z,9.73
2017-10-10T20:20:27.681Z,9.37
2017-10-10T20:22:56.811Z,8.07
2017-10-10T20:25:25.140Z,9.10
2017-10-10T20:27:53.492Z,8.30
2017-10-10T20:30:21.828Z,8.63
2017-10-10T20:32:50.168Z,8.50
2017-10-10T20:35:18.488Z,8.60
2017-10-10T20:37:46.830Z,9.57
2017-10-10T20:40:15.952Z,9.97
2017-10-10T20:42:45.062Z,10.00
2017-10-10T20:45:13.380Z,7.47
2017-10-10T20:47:43.246Z,8.40
2017-10-10T20:50:12.317Z,9.20
2017-10-10T20:52:40.660Z,8.30
2017-10-10T20:55:08.979Z,8.80
2017-10-10T20:57:37.326Z,9.17
2017-10-10T21:00:05.658Z,9.27
2017-10-10T21:02:34.071Z,8.37
2017-10-10T21:05:02.384Z,7.80
2017-10-10T21:07:30.728Z,8.70
2017-10-10T21:09:59.051Z,9.33
2017-10-10T21:12:27.395Z,9.57
2017-10-10T21:14:55.723Z,9.37
2017-10-10T21:17:24.830Z,8.83
2017-10-10T21:19:53.917Z,9.40
2017-10-10T21:22:23.031Z,8.77
2017-10-10T21:24:51.364Z,9.70
2017-10-10T21:27:21.247Z,9.03
2017-10-10T21:29:49.581Z,9.10
2017-10-10T21:32:18.666Z,9.50
2017-10-10T21:34:47.034Z,10.00
2017-10-10T21:37:15.365Z,10.90
2017-10-10T21:39:43.737Z,10.10
2017-10-10T21:42:12.072Z,10.30
2017-10-10T21:44:41.362Z,11.50
2017-10-10T21:47:09.696Z,11.53
2017-10-10T21:49:38.059Z,13.67
2017-10-10T21:52:07.158Z,12.50
2017-10-10T21:54:36.281Z,12.40
2017-10-10T21:57:04.608Z,13.43
2017-10-10T21:59:32.958Z,11.90
2017-10-10T22:02:01.301Z,11.73
2017-10-10T22:04:29.672Z,10.43
2017-10-10T22:06:58.767Z,11.47
2017-10-10T22:09:27.884Z,12.87
2017-10-10T22:11:56.203Z,11.70
2017-10-10T22:14:24.550Z,12.90
2017-10-10T22:16:52.866Z,14.00
2017-10-10T22:19:21.223Z,15.17
2017-10-10T22:21:49.551Z,12.03
2017-10-10T22:24:18.670Z,13.43
2017-10-10T22:26:47.021Z,12.20
2017-10-10T22:29:16.138Z,12.50
2017-10-10T22:31:45.037Z,11.27
2017-10-10T22:34:13.394Z,10.50
2017-10-10T22:36:41.733Z,10.57
2017-10-10T22:39:10.086Z,11.10
2017-10-10T22:41:38.438Z,10.60
2017-10-10T22:44:07.546Z,10.20
2017-10-10T22:46:35.888Z,10.60
2017-10-10T22:49:04.240Z,14.33
2017-10-10T22:51:32.608Z,16.10
2017-10-10T22:54:00.991Z,14.60
2017-10-10T22:56:32.847Z,14.90
2017-10-10T22:59:01.975Z,15.30
2017-10-10T23:01:30.315Z,15.83
2017-10-10T23:03:58.688Z,16.27
2017-10-10T23:06:27.035Z,19.27
2017-10-10T23:08:56.163Z,16.17
2017-10-10T23:11:24.501Z,15.47
2017-10-10T23:13:52.856Z,12.30
2017-10-10T23:16:21.194Z,12.00
2017-10-10T23:18:49.563Z,13.10
2017-10-10T23:21:17.884Z,15.83
2017-10-10T23:23:46.245Z,15.33
2017-10-10T23:26:14.576Z,18.30
2017-10-10T23:28:43.716Z,18.10
2017-10-10T23:31:12.058Z,16.00
2017-10-10T23:33:40.413Z,15.63
2017-10-10T23:36:08.740Z,16.33
2017-10-10T23:38:37.103Z,15.37
2017-10-10T23:41:06.206Z,18.20
2017-10-10T23:43:34.579Z,16.30
2017-10-10T23:46:02.940Z,15.50
2017-10-10T23:48:31.292Z,13.40
2017-10-10T23:50:59.613Z,12.60
2017-10-10T23:53:28.724Z,13.30
2017-10-10T23:55:57.811Z,11.40
2017-10-10T23:58:26.187Z,12.30
